createdAt,value
2023-06-30T00:00:18.604Z,66.64
2023-06-30T00:02:49.226Z,65.13
2023-06-30T00:05:16.326Z,66.04
2023-06-30T00:07:46.727Z,67.62
2023-06-30T00:10:13.547Z,67.67
2023-06-30T00:12:40.313Z,71.15
2023-06-30T00:15:07.361Z,68.96
2023-06-30T00:17:34.264Z,67.33
2023-06-30T00:20:01.236Z,68.02
2023-06-30T00:22:28.152Z,66.63
2023-06-30T00:24:56.828Z,65.25
2023-06-30T00:27:24.150Z,64.77
2023-06-30T00:29:50.998Z,66.71
2023-06-30T00:32:20.149Z,65.80
2023-06-30T00:34:47.114Z,68.62
2023-06-30T00:37:15.433Z,72.01
2023-06-30T00:39:42.288Z,72.45
2023-06-30T00:42:09.567Z,71.30
2023-06-30T00:44:36.622Z,71.51
2023-06-30T00:47:03.932Z,67.96
2023-06-30T00:49:32.352Z,68.48
2023-06-30T00:52:01.124Z,74.32
2023-06-30T00:54:28.615Z,74.95
2023-06-30T00:56:55.843Z,71.39
2023-06-30T00:59:23.128Z,70.95
2023-06-30T01:01:59.947Z,73.46
2023-06-30T01:04:32.833Z,72.30
2023-06-30T01:07:07.924Z,71.78
2023-06-30T01:09:39.992Z,75.94
2023-06-30T01:12:08.705Z,76.24
2023-06-30T01:14:37.596Z,77.03
2023-06-30T01:17:06.967Z,77.30
2023-06-30T01:19:45.947Z,80.33
2023-06-30T01:22:20.816Z,80.92
2023-06-30T01:24:50.490Z,81.06
2023-06-30T01:27:17.609Z,82.37
2023-06-30T01:29:44.896Z,82.44
2023-06-30T01:32:18.081Z,81.93
2023-06-30T01:34:46.381Z,82.34
2023-06-30T01:37:14.790Z,84.06
2023-06-30T01:39:41.824Z,84.31
2023-06-30T01:42:09.545Z,88.88
2023-06-30T01:44:37.626Z,88.55
2023-06-30T01:47:05.894Z,92.26
2023-06-30T01:49:34.418Z,94.46
2023-06-30T01:52:02.404Z,96.24
2023-06-30T01:54:29.598Z,94.25
2023-06-30T01:56:56.518Z,93.44
2023-06-30T01:59:23.692Z,93.44
2023-06-30T02:01:50.551Z,94.12
2023-06-30T02:04:17.703Z,96.00
2023-06-30T02:06:47.785Z,95.09
2023-06-30T02:09:14.649Z,95.39
2023-06-30T02:11:41.463Z,95.10
2023-06-30T02:14:08.229Z,93.66
2023-06-30T02:16:35.006Z,94.78
2023-06-30T02:19:01.821Z,97.10
2023-06-30T02:21:28.608Z,97.00
2023-06-30T02:23:55.579Z,93.75
2023-06-30T02:26:22.425Z,93.07
2023-06-30T02:28:50.054Z,95.01
2023-06-30T02:31:17.769Z,94.79
2023-06-30T02:33:44.833Z,98.08
2023-06-30T02:36:11.801Z,96.76
2023-06-30T02:38:38.579Z,98.34
2023-06-30T02:41:05.387Z,100.00
2023-06-30T02:43:32.136Z,100.00
2023-06-30T02:45:59.498Z,100.00
2023-06-30T02:48:27.994Z,99.52
2023-06-30T02:50:54.965Z,98.65
2023-06-30T02:53:21.798Z,98.54
2023-06-30T02:55:49.158Z,96.85
2023-06-30T02:58:16.370Z,99.74
2023-06-30T03:00:43.164Z,97.63
2023-06-30T03:03:11.054Z,97.30
2023-06-30T03:05:38.879Z,93.50
2023-06-30T03:08:07.895Z,100.00
2023-06-30T03:10:34.754Z,100.00
2023-06-30T03:13:01.565Z,100.00
2023-06-30T03:15:29.076Z,100.00
2023-06-30T03:17:56.753Z,100.00
2023-06-30T03:20:24.755Z,100.00
2023-06-30T03:22:54.260Z,100.00
2023-06-30T03:25:21.228Z,100.00
2023-06-30T03:27:48.520Z,100.00
2023-06-30T03:30:17.325Z,100.00
2023-06-30T03:32:46.731Z,100.00
2023-06-30T03:35:16.212Z,100.00
2023-06-30T03:37:43.004Z,100.00
2023-06-30T03:40:10.995Z,100.00
2023-06-30T03:42:38.202Z,100.00
2023-06-30T03:45:05.913Z,100.00
2023-06-30T03:47:33.941Z,100.00
2023-06-30T03:50:00.912Z,100.00
2023-06-30T03:52:27.804Z,100.00
2023-06-30T03:54:54.962Z,100.00
2023-06-30T03:57:21.795Z,100.00
2023-06-30T03:59:48.620Z,100.00
2023-06-30T04:02:15.507Z,100.00
2023-06-30T04:04:42.350Z,100.00
2023-06-30T04:07:09.317Z,100.00
2023-06-30T04:09:36.484Z,100.00
2023-06-30T04:12:03.754Z,100.00
2023-06-30T04:14:30.659Z,100.00
2023-06-30T04:16:59.305Z,100.00
2023-06-30T04:19:26.420Z,100.00
2023-06-30T04:21:53.272Z,100.00
2023-06-30T04:24:20.888Z,100.00
2023-06-30T04:26:47.656Z,100.00
2023-06-30T04:29:16.514Z,100.00
2023-06-30T04:31:44.090Z,100.00
2023-06-30T04:34:11.010Z,100.00
2023-06-30T04:36:37.820Z,100.00
2023-06-30T04:39:04.738Z,100.00
2023-06-30T04:41:31.665Z,100.00
2023-06-30T04:43:58.567Z,100.00
2023-06-30T04:46:26.601Z,100.00
2023-06-30T04:48:54.286Z,100.00
2023-06-30T04:51:21.110Z,100.00
2023-06-30T04:53:47.920Z,100.00
2023-06-30T04:56:14.714Z,100.00
2023-06-30T04:58:41.466Z,100.00
2023-06-30T05:01:08.282Z,100.00
2023-06-30T05:03:35.222Z,100.00
2023-06-30T05:06:02.041Z,100.00
2023-06-30T05:08:28.906Z,100.00
2023-06-30T05:10:55.709Z,100.00
2023-06-30T05:13:22.522Z,100.00
2023-06-30T05:15:49.763Z,100.00
2023-06-30T05:18:16.851Z,100.00
2023-06-30T05:20:43.752Z,100.00
2023-06-30T05:23:10.540Z,100.00
2023-06-30T05:25:38.071Z,100.00
2023-06-30T05:28:05.036Z,100.00
2023-06-30T05:30:31.882Z,100.00
2023-06-30T05:32:58.758Z,100.00
2023-06-30T05:35:25.536Z,100.00
2023-06-30T05:37:52.409Z,100.00
2023-06-30T05:40:19.343Z,100.00
2023-06-30T05:42:46.138Z,100.00
2023-06-30T05:45:12.932Z,100.00
2023-06-30T05:47:39.791Z,100.00
2023-06-30T05:50:07.293Z,100.00
2023-06-30T05:52:34.151Z,100.00
2023-06-30T05:55:00.989Z,100.00
2023-06-30T05:57:30.695Z,100.00
2023-06-30T05:59:57.447Z,100.00
2023-06-30T06:02:24.630Z,100.00
2023-06-30T06:04:52.928Z,100.00
2023-06-30T06:07:20.273Z,100.00
2023-06-30T06:09:47.203Z,100.00
2023-06-30T06:12:14.006Z,100.00
2023-06-30T06:14:41.092Z,100.00
2023-06-30T06:17:08.115Z,100.00
2023-06-30T06:19:35.077Z,100.00
2023-06-30T06:22:01.954Z,100.00
2023-06-30T06:24:28.994Z,100.00
2023-06-30T06:26:55.810Z,100.00
2023-06-30T06:29:25.460Z,100.00
2023-06-30T06:31:55.087Z,100.00
2023-06-30T06:34:23.117Z,100.00
2023-06-30T06:36:49.981Z,100.00
2023-06-30T06:39:16.849Z,100.00
2023-06-30T06:41:43.705Z,100.00
2023-06-30T06:44:16.201Z,100.00
2023-06-30T06:46:44.647Z,100.00
2023-06-30T06:49:11.821Z,100.00
2023-06-30T06:51:38.677Z,100.00
2023-06-30T06:54:05.464Z,100.00
2023-06-30T06:56:32.465Z,100.00
2023-06-30T06:58:59.483Z,100.00
2023-06-30T07:01:26.310Z,100.00
2023-06-30T07:03:53.203Z,100.00
2023-06-30T07:06:22.485Z,100.00
2023-06-30T07:08:50.200Z,100.00
2023-06-30T07:11:19.168Z,100.00
2023-06-30T07:13:46.003Z,100.00
2023-06-30T07:16:12.912Z,100.00
2023-06-30T07:18:39.749Z,100.00
2023-06-30T07:21:06.954Z,100.00
2023-06-30T07:23:34.190Z,100.00
2023-06-30T07:26:01.063Z,100.00
2023-06-30T07:28:27.932Z,100.00
2023-06-30T07:30:54.786Z,100.00
2023-06-30T07:33:21.638Z,100.00
2023-06-30T07:35:48.947Z,95.83
2023-06-30T07:38:16.098Z,100.00
2023-06-30T07:43:12.665Z,100.00
2023-06-30T07:45:39.518Z,100.00
2023-06-30T07:48:06.679Z,100.00
2023-06-30T07:50:33.617Z,100.00
2023-06-30T07:53:02.479Z,100.00
2023-06-30T07:55:29.395Z,100.00
2023-06-30T07:57:56.302Z,100.00
2023-06-30T08:00:29.924Z,100.00
2023-06-30T08:02:56.919Z,100.00
2023-06-30T08:05:24.256Z,100.00
2023-06-30T08:07:51.835Z,100.00
2023-06-30T08:10:19.900Z,100.00
2023-06-30T08:12:46.985Z,100.00
2023-06-30T08:15:13.953Z,100.00
2023-06-30T08:17:56.547Z,100.00
2023-06-30T08:20:28.731Z,100.00
2023-06-30T08:22:55.966Z,100.00
2023-06-30T08:25:24.507Z,100.00
2023-06-30T08:27:52.443Z,100.00
2023-06-30T08:30:22.053Z,100.00
2023-06-30T08:32:50.938Z,100.00
2023-06-30T08:35:17.866Z,100.00
2023-06-30T08:37:44.827Z,100.00
2023-06-30T08:40:12.131Z,100.00
2023-06-30T08:42:44.061Z,100.00
2023-06-30T08:45:13.731Z,100.00
2023-06-30T08:47:41.018Z,100.00
2023-06-30T08:50:09.251Z,100.00
2023-06-30T08:52:36.368Z,100.00
2023-06-30T08:55:04.185Z,100.00
2023-06-30T08:57:32.635Z,100.00
2023-06-30T08:59:59.404Z,100.00
2023-06-30T09:02:27.541Z,100.00
2023-06-30T09:04:56.051Z,100.00
2023-06-30T09:07:39.972Z,100.00
2023-06-30T09:10:10.400Z,100.00
2023-06-30T09:12:40.464Z,100.00
2023-06-30T09:15:10.219Z,100.00
2023-06-30T09:17:37.137Z,100.00
2023-06-30T09:20:04.209Z,100.00
2023-06-30T09:22:52.416Z,100.00
2023-06-30T09:25:26.974Z,100.00
2023-06-30T09:27:55.024Z,97.06
2023-06-30T09:30:35.920Z,92.36
2023-06-30T09:33:03.216Z,95.80
2023-06-30T09:35:41.514Z,100.00
2023-06-30T09:38:12.086Z,100.00
2023-06-30T09:40:38.948Z,99.40
2023-06-30T09:43:06.344Z,87.89
2023-06-30T09:45:33.190Z,92.68
2023-06-30T09:48:00.216Z,86.57
2023-06-30T09:50:28.765Z,93.55
2023-06-30T09:52:55.774Z,79.16
2023-06-30T09:55:22.597Z,78.19
2023-06-30T09:57:49.319Z,63.60
2023-06-30T10:00:33.642Z,67.32
2023-06-30T10:03:07.379Z,76.17
2023-06-30T10:05:34.447Z,77.99
2023-06-30T10:08:02.468Z,63.78
2023-06-30T10:10:30.241Z,70.35
2023-06-30T10:12:59.796Z,63.52
2023-06-30T10:15:27.778Z,53.87
2023-06-30T10:17:56.327Z,66.01
2023-06-30T10:20:33.884Z,71.77
2023-06-30T10:23:06.250Z,70.51
2023-06-30T10:25:37.650Z,71.87
2023-06-30T10:28:05.916Z,76.04
2023-06-30T10:30:33.446Z,63.97
2023-06-30T10:33:00.379Z,67.07
2023-06-30T10:35:28.885Z,73.63
2023-06-30T10:37:57.241Z,66.09
2023-06-30T10:40:26.081Z,67.32
2023-06-30T10:42:55.309Z,67.52
2023-06-30T10:45:27.521Z,67.50
2023-06-30T10:47:54.418Z,74.69
2023-06-30T10:50:21.209Z,78.33
2023-06-30T10:52:55.396Z,88.94
2023-06-30T10:55:24.057Z,90.24
2023-06-30T10:57:53.009Z,85.80
2023-06-30T11:00:22.854Z,98.27
2023-06-30T11:02:58.745Z,98.34
2023-06-30T11:05:32.726Z,100.00
2023-06-30T11:08:02.243Z,100.00
2023-06-30T11:10:34.326Z,100.00
2023-06-30T11:13:10.703Z,100.00
2023-06-30T11:15:44.291Z,100.00
2023-06-30T11:18:23.270Z,100.00
2023-06-30T11:21:06.710Z,98.47
2023-06-30T11:23:37.239Z,99.10
2023-06-30T11:26:19.151Z,100.00
2023-06-30T11:28:49.760Z,94.57
2023-06-30T11:31:17.506Z,92.46
2023-06-30T11:33:45.593Z,97.41
2023-06-30T11:36:17.524Z,95.48
2023-06-30T11:38:53.513Z,84.54
2023-06-30T11:41:23.041Z,95.53
2023-06-30T11:43:55.050Z,94.61
2023-06-30T11:46:22.936Z,93.27
2023-06-30T11:48:50.624Z,89.68
2023-06-30T11:51:20.496Z,90.11
2023-06-30T11:53:48.152Z,82.92
2023-06-30T11:56:15.342Z,82.64
2023-06-30T11:58:52.580Z,75.18
2023-06-30T12:01:22.656Z,78.75
2023-06-30T12:04:19.188Z,69.60
2023-06-30T12:06:47.014Z,75.33
2023-06-30T12:09:14.408Z,72.83
2023-06-30T12:11:46.212Z,72.16
2023-06-30T12:14:16.770Z,75.37
2023-06-30T12:16:51.123Z,76.45
2023-06-30T12:19:19.611Z,73.23
2023-06-30T12:22:02.106Z,67.22
2023-06-30T12:24:36.231Z,58.40
2023-06-30T12:27:10.042Z,65.68
2023-06-30T12:29:37.864Z,63.09
2023-06-30T12:32:15.399Z,73.88
2023-06-30T12:34:42.985Z,70.04
2023-06-30T12:37:09.888Z,63.07
2023-06-30T12:39:36.833Z,67.13
2023-06-30T12:42:03.927Z,62.98
2023-06-30T12:44:31.791Z,63.16
2023-06-30T12:47:06.815Z,68.20
2023-06-30T12:49:35.165Z,69.37
2023-06-30T12:52:03.855Z,63.46
2023-06-30T12:54:31.226Z,64.59
2023-06-30T12:56:58.180Z,70.31
2023-06-30T12:59:24.946Z,67.40
2023-06-30T13:01:51.858Z,66.81
2023-06-30T13:04:18.653Z,66.88
2023-06-30T13:06:45.479Z,68.51
2023-06-30T13:09:12.326Z,65.93
2023-06-30T13:11:39.286Z,71.24
2023-06-30T13:14:06.088Z,67.13
2023-06-30T13:16:32.976Z,61.87
2023-06-30T13:19:00.114Z,63.29
2023-06-30T13:21:27.128Z,61.42
2023-06-30T13:23:54.042Z,60.53
2023-06-30T13:26:21.157Z,61.73
2023-06-30T13:28:48.567Z,67.83
2023-06-30T13:31:15.360Z,69.17
2023-06-30T13:33:42.268Z,72.58
2023-06-30T13:36:09.722Z,76.47
2023-06-30T13:38:36.575Z,74.48
2023-06-30T13:41:03.539Z,70.63
2023-06-30T13:43:30.530Z,66.06
2023-06-30T13:45:59.813Z,58.60
2023-06-30T13:48:26.657Z,61.63
2023-06-30T13:50:53.494Z,58.54
2023-06-30T13:53:20.769Z,56.41
2023-06-30T13:55:48.119Z,54.75
2023-06-30T13:58:15.115Z,53.04
2023-06-30T14:00:42.128Z,50.78
2023-06-30T14:03:09.277Z,51.89
2023-06-30T14:05:36.480Z,50.85
2023-06-30T14:08:03.348Z,54.98
2023-06-30T14:10:30.614Z,58.20
2023-06-30T14:12:57.535Z,57.39
2023-06-30T14:15:24.495Z,54.77
2023-06-30T14:17:51.453Z,53.62
2023-06-30T14:20:18.283Z,54.35
2023-06-30T14:22:45.185Z,53.39
2023-06-30T14:25:23.545Z,50.71
2023-06-30T14:27:51.485Z,53.88
2023-06-30T14:30:18.603Z,54.17
2023-06-30T14:32:47.144Z,56.68
2023-06-30T14:35:14.296Z,52.26
2023-06-30T14:37:41.115Z,52.37
2023-06-30T14:40:08.653Z,53.35
2023-06-30T14:42:35.682Z,53.94
2023-06-30T14:45:02.600Z,57.12
2023-06-30T14:47:31.120Z,57.32
2023-06-30T14:49:58.834Z,58.83
2023-06-30T14:52:26.189Z,61.29
2023-06-30T14:54:53.066Z,60.25
2023-06-30T14:57:20.097Z,63.11
2023-06-30T14:59:47.020Z,63.83
2023-06-30T15:02:15.017Z,67.00
2023-06-30T15:04:41.991Z,68.72
2023-06-30T15:07:08.839Z,78.20
2023-06-30T15:09:35.667Z,92.37
2023-06-30T15:12:02.456Z,97.36
2023-06-30T15:16:55.909Z,100.00
2023-06-30T15:19:22.699Z,100.00
2023-06-30T15:21:50.732Z,100.00
2023-06-30T15:24:17.719Z,100.00
2023-06-30T15:26:44.917Z,100.00
2023-06-30T15:29:15.252Z,94.24
2023-06-30T15:31:42.852Z,98.14
2023-06-30T15:34:09.643Z,100.00
2023-06-30T15:36:36.443Z,100.00
2023-06-30T15:39:04.541Z,100.00
2023-06-30T15:41:31.401Z,100.00
2023-06-30T15:43:58.310Z,100.00
2023-06-30T15:46:26.371Z,100.00
2023-06-30T15:48:53.110Z,100.00
2023-06-30T15:51:21.248Z,100.00
2023-06-30T15:53:48.645Z,100.00
2023-06-30T15:56:15.732Z,100.00
2023-06-30T15:58:42.508Z,100.00
2023-06-30T16:01:09.471Z,100.00
2023-06-30T16:03:38.875Z,100.00
2023-06-30T16:06:05.959Z,100.00
2023-06-30T16:08:33.318Z,100.00
2023-06-30T16:11:00.124Z,100.00
2023-06-30T16:13:26.908Z,100.00
2023-06-30T16:15:53.910Z,97.42
2023-06-30T16:18:21.024Z,98.84
2023-06-30T16:20:47.879Z,100.00
2023-06-30T16:23:14.738Z,100.00
2023-06-30T16:25:41.582Z,100.00
2023-06-30T16:28:08.678Z,100.00
2023-06-30T16:30:37.416Z,100.00
2023-06-30T16:33:04.630Z,100.00
2023-06-30T16:35:32.307Z,100.00
2023-06-30T16:37:59.299Z,100.00
2023-06-30T16:40:26.468Z,92.81
2023-06-30T16:42:54.187Z,99.84
2023-06-30T16:45:21.188Z,100.00
2023-06-30T16:47:48.297Z,100.00
2023-06-30T16:50:16.540Z,100.00
2023-06-30T16:52:44.138Z,100.00
2023-06-30T16:55:12.350Z,100.00
2023-06-30T16:57:40.044Z,100.00
2023-06-30T17:00:09.206Z,100.00
2023-06-30T17:02:36.317Z,100.00
2023-06-30T17:05:04.060Z,100.00
2023-06-30T17:07:30.963Z,100.00
2023-06-30T17:09:57.705Z,100.00
2023-06-30T17:12:24.607Z,100.00
2023-06-30T17:14:51.491Z,100.00
2023-06-30T17:17:18.441Z,100.00
2023-06-30T17:19:45.437Z,100.00
2023-06-30T17:22:12.263Z,100.00
2023-06-30T17:24:39.099Z,100.00
2023-06-30T17:27:06.322Z,100.00
2023-06-30T17:29:33.134Z,100.00
2023-06-30T17:31:59.928Z,100.00
2023-06-30T17:34:26.715Z,100.00
2023-06-30T17:37:01.485Z,100.00
2023-06-30T17:39:28.429Z,100.00
2023-06-30T17:41:55.149Z,100.00
2023-06-30T17:44:21.977Z,100.00
2023-06-30T17:46:48.828Z,100.00
2023-06-30T17:49:29.216Z,100.00
2023-06-30T17:51:56.210Z,100.00
2023-06-30T17:54:26.664Z,100.00
2023-06-30T17:56:53.447Z,100.00
2023-06-30T17:59:20.287Z,100.00
2023-06-30T18:01:47.388Z,100.00
2023-06-30T18:04:15.059Z,100.00
2023-06-30T18:07:02.837Z,100.00
2023-06-30T18:09:30.668Z,100.00
2023-06-30T18:11:58.939Z,100.00
2023-06-30T18:14:27.225Z,100.00
2023-06-30T18:16:54.057Z,100.00
2023-06-30T18:19:22.806Z,100.00
2023-06-30T18:21:51.438Z,100.00
2023-06-30T18:24:19.145Z,100.00
2023-06-30T18:26:50.214Z,100.00
2023-06-30T18:29:22.694Z,100.00
2023-06-30T18:31:54.604Z,100.00
2023-06-30T18:34:22.347Z,100.00
2023-06-30T18:36:49.154Z,100.00
2023-06-30T18:39:17.778Z,100.00
2023-06-30T18:41:44.644Z,100.00
2023-06-30T18:44:11.468Z,100.00
2023-06-30T18:46:38.370Z,100.00
2023-06-30T18:49:07.728Z,100.00
2023-06-30T18:51:36.984Z,100.00
2023-06-30T18:54:03.966Z,100.00
2023-06-30T18:56:30.841Z,100.00
2023-06-30T18:59:02.523Z,100.00
2023-06-30T19:01:30.088Z,100.00
2023-06-30T19:03:57.765Z,100.00
2023-06-30T19:06:25.843Z,100.00
2023-06-30T19:08:56.434Z,100.00
2023-06-30T19:11:23.889Z,100.00
2023-06-30T19:13:51.210Z,100.00
2023-06-30T19:16:18.421Z,100.00
2023-06-30T19:18:45.565Z,100.00
2023-06-30T19:21:12.540Z,100.00
2023-06-30T19:23:41.880Z,100.00
2023-06-30T19:26:09.970Z,100.00
2023-06-30T19:28:37.483Z,100.00
2023-06-30T19:31:04.374Z,100.00
2023-06-30T19:33:32.565Z,100.00
2023-06-30T19:35:59.499Z,100.00
2023-06-30T19:38:26.632Z,100.00
2023-06-30T19:40:55.219Z,100.00
2023-06-30T19:43:22.331Z,100.00
2023-06-30T19:45:50.149Z,100.00
2023-06-30T19:48:17.728Z,100.00
2023-06-30T19:50:44.646Z,100.00
2023-06-30T19:53:11.475Z,100.00
2023-06-30T19:55:38.255Z,100.00
2023-06-30T19:58:06.100Z,100.00
2023-06-30T20:00:33.895Z,100.00
2023-06-30T20:03:01.333Z,100.00
2023-06-30T20:05:28.267Z,100.00
2023-06-30T20:07:56.264Z,100.00
2023-06-30T20:10:23.221Z,100.00
2023-06-30T20:12:50.949Z,100.00
2023-06-30T20:15:18.145Z,100.00
2023-06-30T20:17:45.364Z,100.00
2023-06-30T20:23:02.239Z,100.00
2023-06-30T20:25:29.080Z,100.00
2023-06-30T20:27:55.881Z,100.00
2023-06-30T20:30:22.748Z,100.00
2023-06-30T20:32:49.990Z,100.00
2023-06-30T20:35:20.046Z,100.00
2023-06-30T20:37:47.670Z,100.00
2023-06-30T20:40:14.474Z,100.00
2023-06-30T20:42:41.543Z,100.00
2023-06-30T20:45:08.716Z,100.00
2023-06-30T20:47:36.228Z,100.00
2023-06-30T20:50:04.385Z,100.00
2023-06-30T20:52:31.536Z,100.00
2023-06-30T20:54:58.278Z,100.00
2023-06-30T20:57:25.074Z,100.00
2023-06-30T20:59:51.870Z,100.00
2023-06-30T21:02:18.706Z,100.00
2023-06-30T21:04:45.501Z,100.00
2023-06-30T21:07:12.337Z,100.00
2023-06-30T21:09:39.107Z,100.00
2023-06-30T21:12:06.409Z,100.00
2023-06-30T21:14:33.295Z,100.00
2023-06-30T21:17:00.071Z,100.00
2023-06-30T21:19:27.078Z,100.00
2023-06-30T21:21:54.153Z,100.00
2023-06-30T21:24:20.954Z,100.00
2023-06-30T21:26:47.712Z,100.00
2023-06-30T21:29:14.457Z,100.00
2023-06-30T21:31:41.223Z,100.00
2023-06-30T21:34:08.013Z,100.00
2023-06-30T21:36:38.248Z,100.00
2023-06-30T21:39:06.694Z,100.00
2023-06-30T21:41:33.693Z,100.00
2023-06-30T21:44:00.515Z,100.00
2023-06-30T21:46:27.519Z,100.00
2023-06-30T21:48:54.396Z,100.00
2023-06-30T21:51:21.268Z,100.00
2023-06-30T21:53:48.049Z,100.00
2023-06-30T21:56:14.846Z,100.00
2023-06-30T21:58:41.721Z,100.00
2023-06-30T22:01:08.645Z,100.00
2023-06-30T22:03:35.558Z,100.00
2023-06-30T22:06:02.769Z,100.00
2023-06-30T22:08:29.924Z,100.00
2023-06-30T22:10:58.716Z,100.00
2023-06-30T22:13:25.850Z,100.00
2023-06-30T22:15:52.916Z,100.00
2023-06-30T22:18:19.824Z,100.00
2023-06-30T22:20:46.730Z,100.00
2023-06-30T22:23:13.836Z,100.00
2023-06-30T22:25:40.848Z,100.00
2023-06-30T22:28:07.798Z,100.00
2023-06-30T22:30:34.720Z,100.00
2023-06-30T22:33:01.590Z,100.00
2023-06-30T22:35:28.479Z,100.00
2023-06-30T22:37:55.277Z,100.00
2023-06-30T22:40:22.441Z,100.00
2023-06-30T22:42:49.638Z,100.00
2023-06-30T22:45:16.677Z,100.00
2023-06-30T22:47:44.223Z,100.00
2023-06-30T22:50:11.277Z,100.00
2023-06-30T22:52:39.811Z,100.00
2023-06-30T22:55:10.491Z,100.00
2023-06-30T22:57:37.617Z,100.00
2023-06-30T23:00:06.022Z,100.00
2023-06-30T23:02:33.164Z,100.00
2023-06-30T23:05:00.132Z,100.00
2023-06-30T23:07:27.151Z,100.00
2023-06-30T23:09:54.053Z,100.00
2023-06-30T23:12:20.824Z,100.00
2023-06-30T23:14:47.625Z,100.00
2023-06-30T23:17:16.895Z,100.00
2023-06-30T23:19:49.925Z,100.00
2023-06-30T23:22:18.013Z,100.00
2023-06-30T23:24:49.722Z,100.00
2023-06-30T23:27:17.773Z,100.00
2023-06-30T23:29:50.557Z,100.00
2023-06-30T23:32:20.434Z,100.00
2023-06-30T23:34:48.480Z,100.00
2023-06-30T23:37:17.876Z,100.00
2023-06-30T23:39:45.633Z,100.00
2023-06-30T23:42:12.465Z,100.00
2023-06-30T23:44:39.291Z,100.00
2023-06-30T23:47:15.422Z,100.00
2023-06-30T23:49:42.635Z,100.00
2023-06-30T23:52:09.937Z,100.00
2023-06-30T23:54:36.796Z,100.00
2023-06-30T23:57:03.981Z,100.00
2023-06-30T23:59:30.783Z,100.00
